sensor_id;sensor_type;location;lat;lon;timestamp;P1;durP1;ratioP1;P2;durP2;ratioP2
65373;SDS011;52070;53.760;9.678;2024-03-22T00:02:06;23.52;;;10.52;;
65373;SDS011;52070;53.760;9.678;2024-03-22T00:04:35;18.40;;;9.75;;
65373;SDS011;52070;53.760;9.678;2024-03-22T00:07:02;22.75;;;10.73;;
65373;SDS011;52070;53.760;9.678;2024-03-22T00:09:29;20.25;;;10.13;;
65373;SDS011;52070;53.760;9.678;2024-03-22T00:11:55;23.90;;;10.65;;
65373;SDS011;52070;53.760;9.678;2024-03-22T00:14:22;23.27;;;10.70;;
65373;SDS011;52070;53.760;9.678;2024-03-22T00:16:48;25.50;;;10.73;;
65373;SDS011;52070;53.760;9.678;2024-03-22T00:19:15;23.55;;;10.20;;
65373;SDS011;52070;53.760;9.678;2024-03-22T00:21:41;24.42;;;10.57;;
65373;SDS011;52070;53.760;9.678;2024-03-22T00:24:07;23.58;;;11.05;;
65373;SDS011;52070;53.760;9.678;2024-03-22T00:26:33;24.35;;;10.70;;
65373;SDS011;52070;53.760;9.678;2024-03-22T00:29:00;20.95;;;10.70;;
65373;SDS011;52070;53.760;9.678;2024-03-22T00:31:26;22.35;;;11.40;;
65373;SDS011;52070;53.760;9.678;2024-03-22T00:33:53;21.10;;;11.13;;
65373;SDS011;52070;53.760;9.678;2024-03-22T00:36:19;21.65;;;11.20;;
65373;SDS011;52070;53.760;9.678;2024-03-22T00:38:46;24.40;;;10.50;;
65373;SDS011;52070;53.760;9.678;2024-03-22T00:41:12;28.80;;;10.60;;
65373;SDS011;52070;53.760;9.678;2024-03-22T00:43:39;23.90;;;11.25;;
65373;SDS011;52070;53.760;9.678;2024-03-22T00:46:05;19.42;;;10.25;;
65373;SDS011;52070;53.760;9.678;2024-03-22T00:48:33;24.38;;;10.15;;
65373;SDS011;52070;53.760;9.678;2024-03-22T00:51:00;21.83;;;10.18;;
65373;SDS011;52070;53.760;9.678;2024-03-22T00:53:27;24.00;;;10.38;;
65373;SDS011;52070;53.760;9.678;2024-03-22T00:55:55;21.40;;;11.20;;
65373;SDS011;52070;53.760;9.678;2024-03-22T00:58:21;20.17;;;10.02;;
65373;SDS011;52070;53.760;9.678;2024-03-22T01:00:48;23.58;;;10.18;;
65373;SDS011;52070;53.760;9.678;2024-03-22T01:03:17;21.70;;;10.07;;
65373;SDS011;52070;53.760;9.678;2024-03-22T01:05:44;22.48;;;10.07;;
65373;SDS011;52070;53.760;9.678;2024-03-22T01:08:10;26.95;;;11.23;;
65373;SDS011;52070;53.760;9.678;2024-03-22T01:10:37;27.50;;;11.25;;
65373;SDS011;52070;53.760;9.678;2024-03-22T01:13:03;18.60;;;10.15;;
65373;SDS011;52070;53.760;9.678;2024-03-22T01:15:30;21.73;;;11.23;;
65373;SDS011;52070;53.760;9.678;2024-03-22T01:17:55;21.15;;;10.00;;
65373;SDS011;52070;53.760;9.678;2024-03-22T01:20:22;21.58;;;10.85;;
65373;SDS011;52070;53.760;9.678;2024-03-22T01:22:48;23.63;;;10.40;;
65373;SDS011;52070;53.760;9.678;2024-03-22T01:25:15;23.80;;;11.13;;
65373;SDS011;52070;53.760;9.678;2024-03-22T01:27:41;26.10;;;11.57;;
65373;SDS011;52070;53.760;9.678;2024-03-22T01:30:08;23.83;;;12.05;;
65373;SDS011;52070;53.760;9.678;2024-03-22T01:32:35;23.85;;;11.02;;
65373;SDS011;52070;53.760;9.678;2024-03-22T01:35:02;23.58;;;10.93;;
65373;SDS011;52070;53.760;9.678;2024-03-22T01:37:29;23.80;;;11.15;;
65373;SDS011;52070;53.760;9.678;2024-03-22T01:39:56;19.58;;;10.93;;
65373;SDS011;52070;53.760;9.678;2024-03-22T01:42:22;24.10;;;11.07;;
65373;SDS011;52070;53.760;9.678;2024-03-22T01:44:49;22.25;;;10.38;;
65373;SDS011;52070;53.760;9.678;2024-03-22T01:47:15;22.77;;;11.05;;
65373;SDS011;52070;53.760;9.678;2024-03-22T01:49:43;27.33;;;10.68;;
65373;SDS011;52070;53.760;9.678;2024-03-22T01:52:09;22.13;;;11.02;;
65373;SDS011;52070;53.760;9.678;2024-03-22T01:54:36;23.20;;;11.40;;
65373;SDS011;52070;53.760;9.678;2024-03-22T01:57:02;20.23;;;11.43;;
65373;SDS011;52070;53.760;9.678;2024-03-22T01:59:29;27.65;;;12.90;;
65373;SDS011;52070;53.760;9.678;2024-03-22T02:01:56;24.95;;;11.68;;
65373;SDS011;52070;53.760;9.678;2024-03-22T02:04:23;24.83;;;11.75;;
65373;SDS011;52070;53.760;9.678;2024-03-22T02:06:48;22.70;;;11.50;;
65373;SDS011;52070;53.760;9.678;2024-03-22T02:09:15;26.02;;;12.05;;
65373;SDS011;52070;53.760;9.678;2024-03-22T02:11:41;27.52;;;11.82;;
65373;SDS011;52070;53.760;9.678;2024-03-22T02:14:09;21.90;;;11.70;;
65373;SDS011;52070;53.760;9.678;2024-03-22T02:16:35;27.40;;;12.27;;
65373;SDS011;52070;53.760;9.678;2024-03-22T02:19:02;25.42;;;12.55;;
65373;SDS011;52070;53.760;9.678;2024-03-22T02:21:27;24.33;;;12.93;;
65373;SDS011;52070;53.760;9.678;2024-03-22T02:23:54;27.08;;;11.90;;
65373;SDS011;52070;53.760;9.678;2024-03-22T02:26:20;25.52;;;12.75;;
65373;SDS011;52070;53.760;9.678;2024-03-22T02:28:47;30.63;;;13.82;;
65373;SDS011;52070;53.760;9.678;2024-03-22T02:31:13;28.75;;;13.27;;
65373;SDS011;52070;53.760;9.678;2024-03-22T02:33:40;33.47;;;14.35;;
65373;SDS011;52070;53.760;9.678;2024-03-22T02:36:06;29.80;;;13.52;;
65373;SDS011;52070;53.760;9.678;2024-03-22T02:38:35;33.00;;;14.15;;
65373;SDS011;52070;53.760;9.678;2024-03-22T02:41:01;27.45;;;14.82;;
65373;SDS011;52070;53.760;9.678;2024-03-22T02:43:28;28.05;;;13.60;;
65373;SDS011;52070;53.760;9.678;2024-03-22T02:45:54;29.92;;;14.48;;
65373;SDS011;52070;53.760;9.678;2024-03-22T02:48:21;31.60;;;13.95;;
65373;SDS011;52070;53.760;9.678;2024-03-22T02:50:47;32.17;;;14.27;;
65373;SDS011;52070;53.760;9.678;2024-03-22T02:53:14;31.75;;;15.38;;
65373;SDS011;52070;53.760;9.678;2024-03-22T02:55:40;27.20;;;14.07;;
65373;SDS011;52070;53.760;9.678;2024-03-22T02:58:07;27.88;;;15.07;;
65373;SDS011;52070;53.760;9.678;2024-03-22T03:00:36;32.53;;;15.63;;
65373;SDS011;52070;53.760;9.678;2024-03-22T03:03:04;34.42;;;15.15;;
65373;SDS011;52070;53.760;9.678;2024-03-22T03:05:31;35.65;;;16.10;;
65373;SDS011;52070;53.760;9.678;2024-03-22T03:07:58;37.80;;;15.35;;
65373;SDS011;52070;53.760;9.678;2024-03-22T03:10:24;27.23;;;14.68;;
65373;SDS011;52070;53.760;9.678;2024-03-22T03:12:51;33.05;;;15.57;;
65373;SDS011;52070;53.760;9.678;2024-03-22T03:15:17;35.78;;;17.10;;
65373;SDS011;52070;53.760;9.678;2024-03-22T03:17:44;37.40;;;14.55;;
65373;SDS011;52070;53.760;9.678;2024-03-22T03:20:10;30.73;;;15.50;;
65373;SDS011;52070;53.760;9.678;2024-03-22T03:22:39;34.10;;;16.17;;
65373;SDS011;52070;53.760;9.678;2024-03-22T03:25:05;38.00;;;16.67;;
65373;SDS011;52070;53.760;9.678;2024-03-22T03:27:33;30.23;;;16.08;;
65373;SDS011;52070;53.760;9.678;2024-03-22T03:29:59;37.90;;;16.15;;
65373;SDS011;52070;53.760;9.678;2024-03-22T03:32:26;33.10;;;16.17;;
65373;SDS011;52070;53.760;9.678;2024-03-22T03:34:54;33.95;;;16.95;;
65373;SDS011;52070;53.760;9.678;2024-03-22T03:37:20;32.58;;;16.83;;
65373;SDS011;52070;53.760;9.678;2024-03-22T03:39:46;35.33;;;17.05;;
65373;SDS011;52070;53.760;9.678;2024-03-22T03:42:12;34.22;;;17.13;;
65373;SDS011;52070;53.760;9.678;2024-03-22T03:44:40;35.42;;;17.60;;
65373;SDS011;52070;53.760;9.678;2024-03-22T03:47:06;41.28;;;19.73;;
65373;SDS011;52070;53.760;9.678;2024-03-22T03:49:33;40.38;;;18.70;;
65373;SDS011;52070;53.760;9.678;2024-03-22T03:51:59;42.22;;;19.80;;
65373;SDS011;52070;53.760;9.678;2024-03-22T03:54:26;35.88;;;18.02;;
65373;SDS011;52070;53.760;9.678;2024-03-22T03:56:52;41.80;;;18.65;;
65373;SDS011;52070;53.760;9.678;2024-03-22T03:59:19;39.90;;;18.80;;
65373;SDS011;52070;53.760;9.678;2024-03-22T04:01:45;42.60;;;19.83;;
65373;SDS011;52070;53.760;9.678;2024-03-22T04:04:12;35.17;;;18.17;;
65373;SDS011;52070;53.760;9.678;2024-03-22T04:06:38;40.92;;;19.35;;
65373;SDS011;52070;53.760;9.678;2024-03-22T04:09:05;39.03;;;18.98;;
65373;SDS011;52070;53.760;9.678;2024-03-22T04:11:31;47.17;;;19.80;;
65373;SDS011;52070;53.760;9.678;2024-03-22T04:13:58;37.58;;;17.80;;
65373;SDS011;52070;53.760;9.678;2024-03-22T04:16:24;40.50;;;18.23;;
65373;SDS011;52070;53.760;9.678;2024-03-22T04:18:51;45.53;;;19.23;;
65373;SDS011;52070;53.760;9.678;2024-03-22T04:21:17;37.55;;;19.55;;
65373;SDS011;52070;53.760;9.678;2024-03-22T04:23:44;41.67;;;19.55;;
65373;SDS011;52070;53.760;9.678;2024-03-22T04:26:10;45.90;;;19.30;;
65373;SDS011;52070;53.760;9.678;2024-03-22T04:28:37;46.88;;;19.08;;
65373;SDS011;52070;53.760;9.678;2024-03-22T04:31:04;41.22;;;19.20;;
65373;SDS011;52070;53.760;9.678;2024-03-22T04:33:33;37.53;;;19.38;;
65373;SDS011;52070;53.760;9.678;2024-03-22T04:35:59;41.53;;;19.08;;
65373;SDS011;52070;53.760;9.678;2024-03-22T04:38:27;43.65;;;20.77;;
65373;SDS011;52070;53.760;9.678;2024-03-22T04:40:55;43.63;;;20.52;;
65373;SDS011;52070;53.760;9.678;2024-03-22T04:43:23;47.20;;;21.13;;
65373;SDS011;52070;53.760;9.678;2024-03-22T04:45:50;42.60;;;19.92;;
65373;SDS011;52070;53.760;9.678;2024-03-22T04:48:18;45.05;;;20.85;;
65373;SDS011;52070;53.760;9.678;2024-03-22T04:50:46;46.28;;;21.30;;
65373;SDS011;52070;53.760;9.678;2024-03-22T04:53:16;51.47;;;20.30;;
65373;SDS011;52070;53.760;9.678;2024-03-22T04:55:43;48.30;;;21.08;;
65373;SDS011;52070;53.760;9.678;2024-03-22T04:58:12;50.05;;;21.30;;
65373;SDS011;52070;53.760;9.678;2024-03-22T05:00:42;48.47;;;21.77;;
65373;SDS011;52070;53.760;9.678;2024-03-22T05:03:09;52.13;;;23.52;;
65373;SDS011;52070;53.760;9.678;2024-03-22T05:05:35;50.40;;;22.23;;
65373;SDS011;52070;53.760;9.678;2024-03-22T05:08:02;49.90;;;22.30;;
65373;SDS011;52070;53.760;9.678;2024-03-22T05:10:29;50.38;;;22.55;;
65373;SDS011;52070;53.760;9.678;2024-03-22T05:12:56;54.97;;;22.75;;
65373;SDS011;52070;53.760;9.678;2024-03-22T05:15:23;52.75;;;23.58;;
65373;SDS011;52070;53.760;9.678;2024-03-22T05:17:51;59.78;;;24.42;;
65373;SDS011;52070;53.760;9.678;2024-03-22T05:20:17;59.85;;;23.02;;
65373;SDS011;52070;53.760;9.678;2024-03-22T05:22:44;54.30;;;23.98;;
65373;SDS011;52070;53.760;9.678;2024-03-22T05:25:10;54.30;;;23.17;;
65373;SDS011;52070;53.760;9.678;2024-03-22T05:27:38;50.55;;;22.23;;
65373;SDS011;52070;53.760;9.678;2024-03-22T05:30:04;53.50;;;23.77;;
65373;SDS011;52070;53.760;9.678;2024-03-22T05:32:31;50.42;;;23.33;;
65373;SDS011;52070;53.760;9.678;2024-03-22T05:34:57;55.40;;;24.35;;
65373;SDS011;52070;53.760;9.678;2024-03-22T05:37:24;51.92;;;24.50;;
65373;SDS011;52070;53.760;9.678;2024-03-22T05:39:49;54.53;;;23.23;;
65373;SDS011;52070;53.760;9.678;2024-03-22T05:42:16;54.78;;;23.88;;
65373;SDS011;52070;53.760;9.678;2024-03-22T05:44:43;61.80;;;25.48;;
65373;SDS011;52070;53.760;9.678;2024-03-22T05:47:10;62.92;;;24.90;;
65373;SDS011;52070;53.760;9.678;2024-03-22T05:49:37;54.00;;;24.80;;
65373;SDS011;52070;53.760;9.678;2024-03-22T05:52:03;55.67;;;25.13;;
65373;SDS011;52070;53.760;9.678;2024-03-22T05:54:30;56.00;;;25.35;;
65373;SDS011;52070;53.760;9.678;2024-03-22T05:56:56;55.97;;;24.13;;
65373;SDS011;52070;53.760;9.678;2024-03-22T05:59:23;60.30;;;25.75;;
65373;SDS011;52070;53.760;9.678;2024-03-22T06:01:49;60.72;;;24.52;;
65373;SDS011;52070;53.760;9.678;2024-03-22T06:04:15;60.55;;;25.00;;
65373;SDS011;52070;53.760;9.678;2024-03-22T06:06:41;57.72;;;25.38;;
65373;SDS011;52070;53.760;9.678;2024-03-22T06:09:08;51.97;;;23.30;;
65373;SDS011;52070;53.760;9.678;2024-03-22T06:11:36;57.90;;;24.33;;
65373;SDS011;52070;53.760;9.678;2024-03-22T06:14:03;62.13;;;26.67;;
65373;SDS011;52070;53.760;9.678;2024-03-22T06:16:29;61.83;;;25.75;;
65373;SDS011;52070;53.760;9.678;2024-03-22T06:18:56;58.72;;;25.40;;
65373;SDS011;52070;53.760;9.678;2024-03-22T06:21:22;63.92;;;27.13;;
65373;SDS011;52070;53.760;9.678;2024-03-22T06:23:51;60.22;;;24.42;;
65373;SDS011;52070;53.760;9.678;2024-03-22T06:26:17;60.15;;;25.90;;
65373;SDS011;52070;53.760;9.678;2024-03-22T06:28:44;59.35;;;24.80;;
65373;SDS011;52070;53.760;9.678;2024-03-22T06:31:10;58.33;;;26.52;;
65373;SDS011;52070;53.760;9.678;2024-03-22T06:33:37;57.33;;;24.98;;
65373;SDS011;52070;53.760;9.678;2024-03-22T06:36:03;70.63;;;27.35;;
65373;SDS011;52070;53.760;9.678;2024-03-22T06:38:30;64.53;;;25.50;;
65373;SDS011;52070;53.760;9.678;2024-03-22T06:40:56;60.17;;;25.58;;
65373;SDS011;52070;53.760;9.678;2024-03-22T06:43:24;58.20;;;25.60;;
65373;SDS011;52070;53.760;9.678;2024-03-22T06:45:50;69.15;;;27.00;;
65373;SDS011;52070;53.760;9.678;2024-03-22T06:48:17;70.55;;;27.50;;
65373;SDS011;52070;53.760;9.678;2024-03-22T06:50:43;55.08;;;25.08;;
65373;SDS011;52070;53.760;9.678;2024-03-22T06:53:11;66.43;;;26.65;;
65373;SDS011;52070;53.760;9.678;2024-03-22T06:55:37;67.50;;;28.25;;
65373;SDS011;52070;53.760;9.678;2024-03-22T06:58:04;66.57;;;28.17;;
65373;SDS011;52070;53.760;9.678;2024-03-22T07:00:30;65.10;;;27.70;;
65373;SDS011;52070;53.760;9.678;2024-03-22T07:03:01;62.00;;;27.90;;
65373;SDS011;52070;53.760;9.678;2024-03-22T07:05:28;53.08;;;25.27;;
65373;SDS011;52070;53.760;9.678;2024-03-22T07:07:56;63.03;;;27.77;;
65373;SDS011;52070;53.760;9.678;2024-03-22T07:10:23;59.55;;;26.00;;
65373;SDS011;52070;53.760;9.678;2024-03-22T07:12:54;63.83;;;25.75;;
65373;SDS011;52070;53.760;9.678;2024-03-22T07:15:21;61.38;;;26.00;;
65373;SDS011;52070;53.760;9.678;2024-03-22T07:17:49;63.30;;;26.55;;
65373;SDS011;52070;53.760;9.678;2024-03-22T07:20:15;63.75;;;26.48;;
65373;SDS011;52070;53.760;9.678;2024-03-22T07:22:42;64.18;;;26.98;;
65373;SDS011;52070;53.760;9.678;2024-03-22T07:25:08;59.60;;;27.08;;
65373;SDS011;52070;53.760;9.678;2024-03-22T07:27:36;60.92;;;24.75;;
65373;SDS011;52070;53.760;9.678;2024-03-22T07:30:02;55.33;;;24.63;;
65373;SDS011;52070;53.760;9.678;2024-03-22T07:32:29;59.90;;;25.27;;
65373;SDS011;52070;53.760;9.678;2024-03-22T07:34:55;61.75;;;25.83;;
65373;SDS011;52070;53.760;9.678;2024-03-22T07:37:22;63.70;;;26.60;;
65373;SDS011;52070;53.760;9.678;2024-03-22T07:39:48;62.58;;;26.30;;
65373;SDS011;52070;53.760;9.678;2024-03-22T07:42:15;58.40;;;27.08;;
65373;SDS011;52070;53.760;9.678;2024-03-22T07:44:42;63.78;;;25.33;;
65373;SDS011;52070;53.760;9.678;2024-03-22T07:47:08;64.72;;;26.90;;
65373;SDS011;52070;53.760;9.678;2024-03-22T07:49:34;64.00;;;26.50;;
65373;SDS011;52070;53.760;9.678;2024-03-22T07:52:02;58.00;;;24.60;;
65373;SDS011;52070;53.760;9.678;2024-03-22T07:54:28;59.47;;;25.67;;
65373;SDS011;52070;53.760;9.678;2024-03-22T07:56:55;69.40;;;28.17;;
65373;SDS011;52070;53.760;9.678;2024-03-22T07:59:21;60.65;;;27.35;;
65373;SDS011;52070;53.760;9.678;2024-03-22T08:01:47;62.28;;;26.00;;
65373;SDS011;52070;53.760;9.678;2024-03-22T08:04:13;59.03;;;25.20;;
65373;SDS011;52070;53.760;9.678;2024-03-22T08:06:40;58.65;;;24.80;;
65373;SDS011;52070;53.760;9.678;2024-03-22T08:09:06;61.97;;;25.80;;
65373;SDS011;52070;53.760;9.678;2024-03-22T08:11:33;61.40;;;26.40;;
65373;SDS011;52070;53.760;9.678;2024-03-22T08:13:59;61.83;;;25.58;;
65373;SDS011;52070;53.760;9.678;2024-03-22T08:16:29;63.33;;;25.88;;
65373;SDS011;52070;53.760;9.678;2024-03-22T08:18:55;56.35;;;26.25;;
65373;SDS011;52070;53.760;9.678;2024-03-22T08:21:23;65.50;;;26.08;;
65373;SDS011;52070;53.760;9.678;2024-03-22T08:23:50;59.35;;;25.00;;
65373;SDS011;52070;53.760;9.678;2024-03-22T08:26:17;61.88;;;26.40;;
65373;SDS011;52070;53.760;9.678;2024-03-22T08:28:44;59.40;;;25.00;;
65373;SDS011;52070;53.760;9.678;2024-03-22T08:31:13;57.15;;;24.13;;
65373;SDS011;52070;53.760;9.678;2024-03-22T08:33:39;60.00;;;24.50;;
65373;SDS011;52070;53.760;9.678;2024-03-22T08:36:06;59.65;;;24.83;;
65373;SDS011;52070;53.760;9.678;2024-03-22T08:38:32;60.15;;;23.77;;
65373;SDS011;52070;53.760;9.678;2024-03-22T08:40:59;58.75;;;24.15;;
65373;SDS011;52070;53.760;9.678;2024-03-22T08:43:25;54.67;;;23.52;;
65373;SDS011;52070;53.760;9.678;2024-03-22T08:45:54;57.13;;;25.38;;
65373;SDS011;52070;53.760;9.678;2024-03-22T08:48:21;57.05;;;23.70;;
65373;SDS011;52070;53.760;9.678;2024-03-22T08:50:48;65.13;;;25.35;;
65373;SDS011;52070;53.760;9.678;2024-03-22T08:53:14;59.95;;;25.23;;
65373;SDS011;52070;53.760;9.678;2024-03-22T08:55:45;66.25;;;26.33;;
65373;SDS011;52070;53.760;9.678;2024-03-22T08:58:12;58.95;;;25.83;;
65373;SDS011;52070;53.760;9.678;2024-03-22T09:00:41;64.80;;;26.30;;
65373;SDS011;52070;53.760;9.678;2024-03-22T09:03:07;61.88;;;26.08;;
65373;SDS011;52070;53.760;9.678;2024-03-22T09:05:34;62.63;;;25.58;;
65373;SDS011;52070;53.760;9.678;2024-03-22T09:08:00;65.13;;;26.63;;
65373;SDS011;52070;53.760;9.678;2024-03-22T09:10:29;67.60;;;25.33;;
65373;SDS011;52070;53.760;9.678;2024-03-22T09:12:55;65.10;;;26.00;;
65373;SDS011;52070;53.760;9.678;2024-03-22T09:15:22;62.10;;;24.80;;
65373;SDS011;52070;53.760;9.678;2024-03-22T09:17:48;62.92;;;25.92;;
65373;SDS011;52070;53.760;9.678;2024-03-22T09:20:15;62.88;;;24.55;;
65373;SDS011;52070;53.760;9.678;2024-03-22T09:22:41;57.78;;;24.38;;
65373;SDS011;52070;53.760;9.678;2024-03-22T09:25:08;65.95;;;25.92;;
65373;SDS011;52070;53.760;9.678;2024-03-22T09:27:34;63.83;;;24.48;;
65373;SDS011;52070;53.760;9.678;2024-03-22T09:30:01;59.25;;;24.77;;
65373;SDS011;52070;53.760;9.678;2024-03-22T09:32:29;66.93;;;26.92;;
65373;SDS011;52070;53.760;9.678;2024-03-22T09:34:57;61.03;;;25.15;;
65373;SDS011;52070;53.760;9.678;2024-03-22T09:37:22;65.45;;;24.45;;
65373;SDS011;52070;53.760;9.678;2024-03-22T09:39:49;63.28;;;24.45;;
65373;SDS011;52070;53.760;9.678;2024-03-22T09:42:16;60.80;;;24.15;;
65373;SDS011;52070;53.760;9.678;2024-03-22T09:44:47;67.30;;;22.40;;
65373;SDS011;52070;53.760;9.678;2024-03-22T09:47:17;53.60;;;22.65;;
65373;SDS011;52070;53.760;9.678;2024-03-22T09:49:46;46.85;;;19.17;;
65373;SDS011;52070;53.760;9.678;2024-03-22T09:52:14;52.70;;;21.63;;
65373;SDS011;52070;53.760;9.678;2024-03-22T09:54:43;49.22;;;19.17;;
65373;SDS011;52070;53.760;9.678;2024-03-22T09:57:10;42.42;;;18.75;;
65373;SDS011;52070;53.760;9.678;2024-03-22T09:59:44;50.00;;;18.95;;
65373;SDS011;52070;53.760;9.678;2024-03-22T10:02:11;44.33;;;18.67;;
65373;SDS011;52070;53.760;9.678;2024-03-22T10:04:42;41.40;;;18.08;;
65373;SDS011;52070;53.760;9.678;2024-03-22T10:07:09;47.65;;;19.48;;
65373;SDS011;52070;53.760;9.678;2024-03-22T10:09:36;40.70;;;17.75;;
65373;SDS011;52070;53.760;9.678;2024-03-22T10:12:02;44.30;;;18.27;;
65373;SDS011;52070;53.760;9.678;2024-03-22T10:14:30;43.47;;;17.58;;
65373;SDS011;52070;53.760;9.678;2024-03-22T10:16:56;47.42;;;18.80;;
65373;SDS011;52070;53.760;9.678;2024-03-22T10:19:24;44.72;;;18.52;;
65373;SDS011;52070;53.760;9.678;2024-03-22T10:22:00;36.05;;;16.25;;
65373;SDS011;52070;53.760;9.678;2024-03-22T10:24:31;43.38;;;18.50;;
65373;SDS011;52070;53.760;9.678;2024-03-22T10:26:58;41.03;;;18.27;;
65373;SDS011;52070;53.760;9.678;2024-03-22T10:29:26;41.72;;;17.30;;
65373;SDS011;52070;53.760;9.678;2024-03-22T10:31:53;43.38;;;17.50;;
65373;SDS011;52070;53.760;9.678;2024-03-22T10:34:21;39.47;;;16.65;;
65373;SDS011;52070;53.760;9.678;2024-03-22T10:36:48;40.00;;;18.40;;
65373;SDS011;52070;53.760;9.678;2024-03-22T10:39:18;37.60;;;17.08;;
65373;SDS011;52070;53.760;9.678;2024-03-22T10:41:45;43.40;;;17.20;;
65373;SDS011;52070;53.760;9.678;2024-03-22T10:44:13;38.78;;;16.05;;
65373;SDS011;52070;53.760;9.678;2024-03-22T10:46:46;39.92;;;16.08;;
65373;SDS011;52070;53.760;9.678;2024-03-22T10:49:17;37.00;;;14.32;;
65373;SDS011;52070;53.760;9.678;2024-03-22T10:51:56;37.40;;;14.70;;
65373;SDS011;52070;53.760;9.678;2024-03-22T10:54:26;30.35;;;13.32;;
65373;SDS011;52070;53.760;9.678;2024-03-22T10:56:56;30.35;;;13.18;;
65373;SDS011;52070;53.760;9.678;2024-03-22T10:59:24;23.60;;;11.85;;
65373;SDS011;52070;53.760;9.678;2024-03-22T11:01:50;27.95;;;12.77;;
65373;SDS011;52070;53.760;9.678;2024-03-22T11:04:18;23.70;;;11.70;;
65373;SDS011;52070;53.760;9.678;2024-03-22T11:06:48;21.52;;;10.73;;
65373;SDS011;52070;53.760;9.678;2024-03-22T11:09:20;22.05;;;9.60;;
65373;SDS011;52070;53.760;9.678;2024-03-22T11:11:47;18.58;;;8.95;;
65373;SDS011;52070;53.760;9.678;2024-03-22T11:14:14;14.75;;;8.32;;
65373;SDS011;52070;53.760;9.678;2024-03-22T11:16:46;15.57;;;7.70;;
65373;SDS011;52070;53.760;9.678;2024-03-22T11:19:13;16.55;;;7.25;;
65373;SDS011;52070;53.760;9.678;2024-03-22T11:21:39;15.63;;;6.30;;
65373;SDS011;52070;53.760;9.678;2024-03-22T11:24:06;11.45;;;6.63;;
65373;SDS011;52070;53.760;9.678;2024-03-22T11:26:33;12.52;;;6.30;;
65373;SDS011;52070;53.760;9.678;2024-03-22T11:29:00;10.15;;;5.18;;
65373;SDS011;52070;53.760;9.678;2024-03-22T11:31:27;8.10;;;4.35;;
65373;SDS011;52070;53.760;9.678;2024-03-22T11:33:54;7.70;;;4.55;;
65373;SDS011;52070;53.760;9.678;2024-03-22T11:36:21;6.78;;;4.25;;
65373;SDS011;52070;53.760;9.678;2024-03-22T11:38:49;7.78;;;4.22;;
65373;SDS011;52070;53.760;9.678;2024-03-22T11:41:26;9.02;;;3.67;;
65373;SDS011;52070;53.760;9.678;2024-03-22T11:43:55;6.22;;;3.17;;
65373;SDS011;52070;53.760;9.678;2024-03-22T11:46:23;4.88;;;3.03;;
65373;SDS011;52070;53.760;9.678;2024-03-22T11:48:51;4.88;;;3.25;;
65373;SDS011;52070;53.760;9.678;2024-03-22T11:51:18;5.35;;;3.10;;
65373;SDS011;52070;53.760;9.678;2024-03-22T11:53:49;7.28;;;3.33;;
65373;SDS011;52070;53.760;9.678;2024-03-22T11:56:21;6.70;;;2.85;;
65373;SDS011;52070;53.760;9.678;2024-03-22T11:58:48;4.68;;;3.05;;
65373;SDS011;52070;53.760;9.678;2024-03-22T12:01:15;5.50;;;2.97;;
65373;SDS011;52070;53.760;9.678;2024-03-22T12:03:44;4.65;;;3.00;;
65373;SDS011;52070;53.760;9.678;2024-03-22T12:06:12;3.70;;;2.65;;
65373;SDS011;52070;53.760;9.678;2024-03-22T12:08:38;6.82;;;3.35;;
65373;SDS011;52070;53.760;9.678;2024-03-22T12:11:09;6.25;;;2.90;;
65373;SDS011;52070;53.760;9.678;2024-03-22T12:13:37;3.70;;;2.53;;
65373;SDS011;52070;53.760;9.678;2024-03-22T12:16:05;3.53;;;2.50;;
65373;SDS011;52070;53.760;9.678;2024-03-22T12:18:31;4.47;;;2.70;;
65373;SDS011;52070;53.760;9.678;2024-03-22T12:20:58;5.22;;;2.67;;
65373;SDS011;52070;53.760;9.678;2024-03-22T12:23:25;3.78;;;2.30;;
65373;SDS011;52070;53.760;9.678;2024-03-22T12:25:52;4.90;;;2.40;;
65373;SDS011;52070;53.760;9.678;2024-03-22T12:28:18;4.70;;;2.22;;
65373;SDS011;52070;53.760;9.678;2024-03-22T12:30:45;3.25;;;2.33;;
65373;SDS011;52070;53.760;9.678;2024-03-22T12:33:11;2.95;;;1.88;;
65373;SDS011;52070;53.760;9.678;2024-03-22T12:35:41;2.95;;;1.92;;
65373;SDS011;52070;53.760;9.678;2024-03-22T12:38:07;3.10;;;1.90;;
65373;SDS011;52070;53.760;9.678;2024-03-22T12:40:36;2.63;;;1.83;;
65373;SDS011;52070;53.760;9.678;2024-03-22T12:43:03;2.60;;;1.70;;
65373;SDS011;52070;53.760;9.678;2024-03-22T12:45:31;2.22;;;1.30;;
65373;SDS011;52070;53.760;9.678;2024-03-22T12:47:58;3.72;;;1.83;;
65373;SDS011;52070;53.760;9.678;2024-03-22T12:50:26;4.53;;;1.63;;
65373;SDS011;52070;53.760;9.678;2024-03-22T12:52:52;2.22;;;1.50;;
65373;SDS011;52070;53.760;9.678;2024-03-22T12:55:19;3.90;;;1.65;;
65373;SDS011;52070;53.760;9.678;2024-03-22T12:57:45;2.33;;;1.55;;
65373;SDS011;52070;53.760;9.678;2024-03-22T13:00:12;2.13;;;1.40;;
65373;SDS011;52070;53.760;9.678;2024-03-22T13:02:40;2.08;;;1.30;;
65373;SDS011;52070;53.760;9.678;2024-03-22T13:05:07;4.15;;;1.75;;
65373;SDS011;52070;53.760;9.678;2024-03-22T13:07:33;2.15;;;1.42;;
65373;SDS011;52070;53.760;9.678;2024-03-22T13:10:01;3.67;;;1.77;;
65373;SDS011;52070;53.760;9.678;2024-03-22T13:12:27;3.67;;;1.73;;
65373;SDS011;52070;53.760;9.678;2024-03-22T13:14:56;4.78;;;1.73;;
65373;SDS011;52070;53.760;9.678;2024-03-22T13:17:23;4.30;;;1.50;;
65373;SDS011;52070;53.760;9.678;2024-03-22T13:19:50;1.60;;;1.45;;
65373;SDS011;52070;53.760;9.678;2024-03-22T13:22:16;1.58;;;1.40;;
65373;SDS011;52070;53.760;9.678;2024-03-22T13:24:44;3.15;;;1.58;;
65373;SDS011;52070;53.760;9.678;2024-03-22T13:27:11;2.80;;;1.70;;
65373;SDS011;52070;53.760;9.678;2024-03-22T13:29:39;2.58;;;1.90;;
65373;SDS011;52070;53.760;9.678;2024-03-22T13:32:07;2.10;;;1.88;;
65373;SDS011;52070;53.760;9.678;2024-03-22T13:34:35;3.35;;;1.80;;
65373;SDS011;52070;53.760;9.678;2024-03-22T13:37:01;2.25;;;1.58;;
65373;SDS011;52070;53.760;9.678;2024-03-22T13:39:28;1.65;;;1.40;;
65373;SDS011;52070;53.760;9.678;2024-03-22T13:41:55;4.28;;;1.58;;
65373;SDS011;52070;53.760;9.678;2024-03-22T13:44:25;6.82;;;2.30;;
65373;SDS011;52070;53.760;9.678;2024-03-22T13:46:51;9.40;;;2.17;;
65373;SDS011;52070;53.760;9.678;2024-03-22T13:49:18;12.85;;;2.13;;
65373;SDS011;52070;53.760;9.678;2024-03-22T13:51:49;13.90;;;2.38;;
65373;SDS011;52070;53.760;9.678;2024-03-22T13:54:16;17.65;;;2.58;;
65373;SDS011;52070;53.760;9.678;2024-03-22T13:56:42;22.50;;;2.88;;
65373;SDS011;52070;53.760;9.678;2024-03-22T13:59:09;20.08;;;2.78;;
65373;SDS011;52070;53.760;9.678;2024-03-22T14:01:35;12.77;;;2.75;;
65373;SDS011;52070;53.760;9.678;2024-03-22T14:04:03;14.98;;;3.10;;
65373;SDS011;52070;53.760;9.678;2024-03-22T14:06:30;10.50;;;2.35;;
65373;SDS011;52070;53.760;9.678;2024-03-22T14:08:57;19.75;;;3.30;;
65373;SDS011;52070;53.760;9.678;2024-03-22T14:11:27;12.75;;;2.50;;
65373;SDS011;52070;53.760;9.678;2024-03-22T14:13:58;22.67;;;2.53;;
65373;SDS011;52070;53.760;9.678;2024-03-22T14:16:24;20.75;;;3.17;;
65373;SDS011;52070;53.760;9.678;2024-03-22T14:18:52;16.98;;;2.78;;
65373;SDS011;52070;53.760;9.678;2024-03-22T14:21:18;15.90;;;3.05;;
65373;SDS011;52070;53.760;9.678;2024-03-22T14:23:46;20.85;;;2.88;;
65373;SDS011;52070;53.760;9.678;2024-03-22T14:26:12;14.32;;;2.55;;